»·PEaware :: N648CR KCRQ-KMMH

N648CR :: KCRQ-KMMH

FLIGHT INFORMATION

Flight Status: Arrived
Operator: Privately registered:
United States
More flights under this callsign
Pilot: James D. (19799)
Aircraft: Unknown
(SF50)
More flights by this aircraft type
Origin: KCRQ McClellan-Palomar
United States
Destination: KMMH Mammoth Yosemite
United States
More flights between these airports :: More routes between these airports
Route: +
File this flight plan on PilotEdge
Remarks:
Altitude:
(Current/Filed)
0ft
Speed:
(Current/Filed)
0kts
Departed: 13-Aug-19 01:59 PM
Arrived: 13-Aug-19 03:02 PM
Distance/Time
Traveled:
0nm/1:03
Distance/Time
To Go:
Arrived

Flight Plot

Page will automatically refresh every two minutes.

Flight plan parsing failed; only flown route is shown


Map Options




Map Legend


Flown Route
Filed Route
Departure Airport
Arrival Airport
Navaid (VOR, NDB)
Fix

Horizontal Profiles

Position Reports

Time Latitude Longitude Heading Altitude Ground
Speed
13-Aug-19 13:57 33.481831 -117.168497 340 8005ft 258kts
13-Aug-19 13:58 33.542082 -117.212957 324 9209ft 253kts
13-Aug-19 13:59 33.600595 -117.259178 325 10406ft 250kts
13-Aug-19 14:00 33.658853 -117.305266 325 11451ft 253kts
13-Aug-19 14:01 33.718030 -117.352158 325 12460ft 254kts
13-Aug-19 14:02 33.776938 -117.398919 325 13464ft 253kts
13-Aug-19 14:03 33.835620 -117.445579 325 14461ft 252kts
13-Aug-19 14:04 33.897940 -117.495232 325 14515ft 282kts
13-Aug-19 14:05 33.965227 -117.548923 325 14513ft 295kts
13-Aug-19 14:06 34.034397 -117.604227 325 14517ft 301kts
13-Aug-19 14:07 34.104654 -117.660509 324 14524ft 303kts
13-Aug-19 14:08 34.175168 -117.717120 324 14458ft 305kts
13-Aug-19 14:09 34.245817 -117.773950 324 14462ft 304kts
13-Aug-19 14:10 34.316188 -117.830672 324 14464ft 304kts
13-Aug-19 14:11 34.386405 -117.887388 324 14470ft 303kts
13-Aug-19 14:12 34.456481 -117.944099 324 14494ft 303kts
13-Aug-19 14:13 34.526321 -118.000743 324 14512ft 303kts
13-Aug-19 14:14 34.596298 -118.057615 324 14518ft 303kts
13-Aug-19 14:15 34.674726 -118.091249 352 14518ft 305kts
13-Aug-19 14:16 34.758932 -118.104395 352 14518ft 306kts
13-Aug-19 14:17 34.843460 -118.117381 352 14518ft 306kts
13-Aug-19 14:18 34.927592 -118.130328 352 14521ft 305kts
13-Aug-19 14:19 35.011695 -118.143301 351 14523ft 303kts
13-Aug-19 14:20 35.093197 -118.131642 21 14903ft 299kts
13-Aug-19 14:21 35.169982 -118.091546 23 15514ft 309kts
13-Aug-19 14:22 35.250950 -118.048391 23 15675ft 321kts
13-Aug-19 14:23 35.329472 -118.006436 23 15497ft 297kts
13-Aug-19 14:24 35.403784 -117.966650 23 15487ft 289kts
13-Aug-19 14:25 35.476837 -117.927460 23 15477ft 286kts
13-Aug-19 14:26 35.549580 -117.888357 23 15472ft 284kts
13-Aug-19 14:27 35.621860 -117.849428 23 15472ft 284kts
13-Aug-19 14:28 35.696518 -117.846001 338 15474ft 279kts
13-Aug-19 14:29 35.769602 -117.878386 340 15473ft 280kts
13-Aug-19 14:30 35.844271 -117.905487 343 15473ft 280kts
13-Aug-19 14:31 35.919918 -117.908748 18 15475ft 283kts
13-Aug-19 14:32 35.997274 -117.909462 348 15473ft 281kts
13-Aug-19 14:33 36.074521 -117.927191 347 15475ft 288kts
13-Aug-19 14:34 36.154893 -117.946181 347 15472ft 299kts
13-Aug-19 14:35 36.237620 -117.965769 347 15454ft 304kts
13-Aug-19 14:36 36.316247 -118.000869 331 15494ft 301kts
13-Aug-19 14:37 36.391380 -118.048184 331 15994ft 303kts
13-Aug-19 14:38 36.466891 -118.095791 331 16495ft 304kts
13-Aug-19 14:40 36.542361 -118.143474 331 16996ft 304kts
13-Aug-19 14:41 36.617777 -118.191229 331 17490ft 304kts
13-Aug-19 14:42 36.694317 -118.239809 331 17537ft 314kts
13-Aug-19 14:43 36.773125 -118.289935 331 17537ft 319kts
13-Aug-19 14:44 36.852723 -118.340685 331 17536ft 321kts
13-Aug-19 14:45 36.932542 -118.391697 331 17536ft 321kts
13-Aug-19 14:46 37.012082 -118.442645 331 17295ft 316kts
13-Aug-19 14:47 37.085634 -118.489868 331 17269ft 282kts
13-Aug-19 14:48 37.153613 -118.533605 331 17269ft 268kts
13-Aug-19 14:49 37.219086 -118.575813 331 17275ft 262kts
13-Aug-19 14:50 37.283283 -118.617282 331 17317ft 258kts
13-Aug-19 14:51 37.346888 -118.658448 331 17359ft 257kts
13-Aug-19 14:52 37.410370 -118.699612 331 17398ft 256kts
13-Aug-19 14:53 37.472852 -118.740204 331 16977ft 247kts
13-Aug-19 14:54 37.533412 -118.779622 331 15048ft 245kts
13-Aug-19 14:55 37.586098 -118.813980 331 12705ft 203kts
13-Aug-19 14:55 37.627310 -118.840885 333 10158ft 195kts
13-Aug-19 14:57 37.669898 -118.886923 301 8816ft 170kts
13-Aug-19 14:58 37.659850 -118.917677 142 8269ft 109kts
13-Aug-19 14:58 37.641083 -118.898968 125 7959ft 103kts
13-Aug-19 15:00 37.630057 -118.860777 108 7364ft 84kts
13-Aug-19 15:00 37.624848 -118.841881 106 7115ft 41kts
13-Aug-19 15:02 37.624481 -118.836923 13 7100ft 1kts
13-Aug-19 15:03 37.624575 -118.836876 22 7099ft 0kts
13-Aug-19 15:03 37.624606 -118.836860 22 7099ft 0kts
13-Aug-19 15:04 37.626332 -118.846986 108 7131ft 63kts
13-Aug-19 15:05 37.629690 -118.859367 108 7332ft 83kts
13-Aug-19 15:06 37.626233 -118.846621 108 7130ft 62kts
13-Aug-19 15:07 37.560293 -118.797128 331 14290ft 205kts
13-Aug-19 15:08 37.670523 -118.888183 301 8789ft 170kts
13-Aug-19 15:09 33.128038 -117.276360 79 335ft 8kts

Navigation Log

Ident Type
Flight plan parsing failed, navigation log unavailable